createdAt,value
2023-01-30T00:01:32.548Z,-2.46
2023-01-30T00:04:01.412Z,-2.47
2023-01-30T00:06:29.766Z,-2.49
2023-01-30T00:08:57.843Z,-2.52
2023-01-30T00:11:26.462Z,-2.55
2023-01-30T00:13:56.181Z,-2.56
2023-01-30T00:16:24.454Z,-2.58
2023-01-30T00:18:52.598Z,-2.57
2023-01-30T00:21:21.201Z,-2.56
2023-01-30T00:23:54.217Z,-2.55
2023-01-30T00:26:22.530Z,-2.56
2023-01-30T00:28:50.639Z,-2.57
2023-01-30T00:31:21.687Z,-2.57
2023-01-30T00:33:51.851Z,-2.57
2023-01-30T00:36:19.944Z,-2.56
2023-01-30T00:38:48.323Z,-2.54
2023-01-30T00:41:19.021Z,-2.56
2023-01-30T00:44:05.853Z,-2.57
2023-01-30T00:46:53.560Z,-2.58
2023-01-30T00:49:21.645Z,-2.59
2023-01-30T00:51:50.070Z,-2.60
2023-01-30T00:54:18.344Z,-2.60
2023-01-30T00:56:46.635Z,-2.60
2023-01-30T00:59:14.793Z,-2.62
2023-01-30T01:01:42.863Z,-2.63
2023-01-30T01:04:11.968Z,-2.61
2023-01-30T01:06:44.453Z,-2.58
2023-01-30T01:09:12.796Z,-2.58
2023-01-30T01:11:41.916Z,-2.60
2023-01-30T01:14:10.588Z,-2.59
2023-01-30T01:16:40.507Z,-2.60
2023-01-30T01:19:08.633Z,-2.62
2023-01-30T01:21:37.049Z,-2.66
2023-01-30T01:24:06.607Z,-2.67
2023-01-30T01:26:35.465Z,-2.66
2023-01-30T01:29:04.265Z,-2.62
2023-01-30T01:31:33.140Z,-2.59
2023-01-30T01:34:01.548Z,-2.59
2023-01-30T01:36:52.296Z,-2.61
2023-01-30T01:39:17.978Z,-2.63
2023-01-30T01:41:46.098Z,-2.64
2023-01-30T01:44:14.449Z,-2.62
2023-01-30T01:46:52.126Z,-2.60
2023-01-30T01:49:30.756Z,-2.59
2023-01-30T01:52:09.885Z,-2.58
2023-01-30T01:54:42.045Z,-2.56
2023-01-30T01:57:16.382Z,-2.56
2023-01-30T01:59:46.793Z,-2.58
2023-01-30T02:02:17.324Z,-2.59
2023-01-30T02:05:06.995Z,-2.58
2023-01-30T02:07:37.727Z,-2.55
2023-01-30T02:10:07.326Z,-2.53
2023-01-30T02:12:35.791Z,-2.50
2023-01-30T02:15:04.533Z,-2.48
2023-01-30T02:17:36.280Z,-2.44
2023-01-30T02:20:20.227Z,-2.39
2023-01-30T02:23:28.019Z,-2.32
2023-01-30T02:26:30.301Z,-2.26
2023-01-30T02:29:07.268Z,-2.22
2023-01-30T02:31:56.620Z,-2.18
2023-01-30T02:34:50.002Z,-2.14
2023-01-30T02:37:27.571Z,-2.12
2023-01-30T02:40:53.636Z,-2.11
2023-01-30T02:43:26.605Z,-2.09
2023-01-30T02:45:57.554Z,-2.05
2023-01-30T02:48:30.917Z,-2.00
2023-01-30T02:51:01.504Z,-1.97
2023-01-30T02:53:34.198Z,-1.94
2023-01-30T02:56:02.816Z,-1.93
2023-01-30T02:58:35.133Z,-1.91
2023-01-30T03:01:28.712Z,-1.89
2023-01-30T03:04:18.583Z,-1.89
2023-01-30T03:06:57.379Z,-1.92
2023-01-30T03:10:05.738Z,-1.95
2023-01-30T03:12:53.930Z,-1.93
2023-01-30T03:15:46.334Z,-1.90
2023-01-30T03:18:14.406Z,-1.89
2023-01-30T03:20:42.433Z,-1.89
2023-01-30T03:23:21.752Z,-1.92
2023-01-30T03:25:49.859Z,-2.00
2023-01-30T03:28:19.796Z,-2.12
2023-01-30T03:30:48.087Z,-2.22
2023-01-30T03:33:16.281Z,-2.29
2023-01-30T03:35:49.157Z,-2.30
2023-01-30T03:38:18.384Z,-2.36
2023-01-30T03:40:47.394Z,-2.41
2023-01-30T03:43:16.335Z,-2.50
2023-01-30T03:45:48.171Z,-2.54
2023-01-30T03:48:17.122Z,-2.59
2023-01-30T03:50:45.635Z,-2.65
2023-01-30T03:53:15.280Z,-2.69
2023-01-30T03:55:44.859Z,-2.69
2023-01-30T03:58:12.987Z,-2.73
2023-01-30T04:00:41.162Z,-2.73
2023-01-30T04:03:09.748Z,-2.75
2023-01-30T04:05:38.886Z,-2.78
2023-01-30T04:08:08.646Z,-2.82
2023-01-30T04:10:36.774Z,-2.86
2023-01-30T04:13:05.754Z,-2.93
2023-01-30T04:15:34.178Z,-3.03
2023-01-30T04:18:21.004Z,-3.09
2023-01-30T04:21:15.376Z,-3.15
2023-01-30T04:23:43.480Z,-3.28
2023-01-30T04:26:12.104Z,-3.44
2023-01-30T04:28:41.142Z,-3.56
2023-01-30T04:31:09.345Z,-3.64
2023-01-30T04:33:40.365Z,-3.72
2023-01-30T04:36:10.145Z,-3.80
2023-01-30T04:38:38.538Z,-3.87
2023-01-30T04:41:10.374Z,-3.93
2023-01-30T04:43:41.452Z,-3.96
2023-01-30T04:46:12.260Z,-4.00
2023-01-30T04:48:41.685Z,-4.08
2023-01-30T04:51:10.749Z,-4.11
2023-01-30T04:53:39.371Z,-4.13
2023-01-30T04:56:07.876Z,-4.15
2023-01-30T04:58:36.135Z,-4.18
2023-01-30T05:01:21.686Z,-4.23
2023-01-30T05:03:53.788Z,-4.25
2023-01-30T05:06:22.504Z,-4.32
2023-01-30T05:08:55.380Z,-4.34
2023-01-30T05:11:24.864Z,-4.38
2023-01-30T05:13:53.142Z,-4.48
2023-01-30T05:16:21.826Z,-4.59
2023-01-30T05:18:50.572Z,-4.70
2023-01-30T05:21:23.357Z,-4.81
2023-01-30T05:23:53.022Z,-4.90
2023-01-30T05:26:21.498Z,-4.93
2023-01-30T05:28:56.720Z,-4.92
2023-01-30T05:31:24.899Z,-4.88
2023-01-30T05:33:53.235Z,-4.84
2023-01-30T05:36:22.333Z,-4.83
2023-01-30T05:38:50.551Z,-4.81
2023-01-30T05:41:19.607Z,-4.75
2023-01-30T05:43:51.146Z,-4.68
2023-01-30T05:46:19.531Z,-4.60
2023-01-30T05:48:47.818Z,-4.60
2023-01-30T05:51:20.231Z,-4.63
2023-01-30T05:53:52.788Z,-4.58
2023-01-30T05:56:21.083Z,-4.51
2023-01-30T05:58:56.363Z,-4.39
2023-01-30T06:01:26.795Z,-3.95
2023-01-30T06:03:55.129Z,-3.38
2023-01-30T06:06:23.250Z,-2.74
2023-01-30T06:08:55.622Z,-2.10
2023-01-30T06:11:24.784Z,-1.42
2023-01-30T06:13:53.036Z,-0.78
2023-01-30T06:16:21.626Z,-0.17
2023-01-30T06:18:50.478Z,0.31
2023-01-30T06:21:18.924Z,0.84
2023-01-30T06:23:47.530Z,1.29
2023-01-30T06:26:16.164Z,1.69
2023-01-30T06:28:45.058Z,2.07
2023-01-30T06:31:17.015Z,2.40
2023-01-30T06:33:46.787Z,2.73
2023-01-30T06:36:15.417Z,3.02
2023-01-30T06:38:44.145Z,3.28
2023-01-30T06:41:12.653Z,3.43
2023-01-30T06:43:44.494Z,3.61
2023-01-30T06:46:15.028Z,3.86
2023-01-30T06:48:46.407Z,4.12
2023-01-30T06:51:15.348Z,4.28
2023-01-30T06:53:44.226Z,4.40
2023-01-30T06:56:14.115Z,4.45
2023-01-30T06:58:43.159Z,4.55
2023-01-30T07:01:12.920Z,4.64
2023-01-30T07:03:41.339Z,4.62
2023-01-30T07:06:14.153Z,4.65
2023-01-30T07:08:45.320Z,4.68
2023-01-30T07:11:17.560Z,4.92
2023-01-30T07:13:48.447Z,5.15
2023-01-30T07:16:17.954Z,5.36
2023-01-30T07:18:53.558Z,5.62
2023-01-30T07:21:22.751Z,5.76
2023-01-30T07:23:52.057Z,5.83
2023-01-30T07:26:22.594Z,5.83
2023-01-30T07:28:53.051Z,5.72
2023-01-30T07:31:24.026Z,5.55
2023-01-30T07:36:39.965Z,5.23
2023-01-30T07:39:09.746Z,4.99
2023-01-30T07:41:38.943Z,4.71
2023-01-30T07:44:14.881Z,4.47
2023-01-30T07:46:45.218Z,4.20
2023-01-30T07:49:18.167Z,3.92
2023-01-30T07:51:47.688Z,3.69
2023-01-30T08:03:51.693Z,2.21
2023-01-30T08:06:49.638Z,1.93
2023-01-30T08:12:07.883Z,1.35
2023-01-30T08:24:01.466Z,0.63
2023-01-30T08:30:20.584Z,0.42
2023-01-30T08:33:05.994Z,0.29
2023-01-30T08:38:45.689Z,0.09
2023-01-30T08:44:34.043Z,0.01
2023-01-30T08:47:35.338Z,0.05
2023-01-30T08:53:11.218Z,0.10
2023-01-30T08:55:40.607Z,0.08
2023-01-30T08:58:16.602Z,0.06
2023-01-30T09:00:59.023Z,0.04
2023-01-30T09:03:27.504Z,-0.01
2023-01-30T09:11:55.767Z,-0.11
2023-01-30T09:14:38.728Z,-0.10
2023-01-30T09:20:03.976Z,-0.13
2023-01-30T09:25:24.694Z,-0.05
2023-01-30T09:31:37.207Z,-0.03
2023-01-30T09:34:17.137Z,-0.02
2023-01-30T09:39:47.273Z,-0.05
2023-01-30T09:42:39.736Z,-0.05
2023-01-30T09:45:43.180Z,0.03
2023-01-30T09:48:42.573Z,0.16
2023-01-30T09:51:29.975Z,0.31
2023-01-30T09:54:06.803Z,0.37
2023-01-30T10:00:14.379Z,0.46
2023-01-30T10:03:03.332Z,0.48
2023-01-30T10:06:00.862Z,0.53
2023-01-30T10:08:42.257Z,0.58
2023-01-30T10:11:29.949Z,0.63
2023-01-30T10:18:24.797Z,0.69
2023-01-30T10:21:15.805Z,0.80
2023-01-30T10:24:12.212Z,0.86
2023-01-30T10:26:54.902Z,0.85
2023-01-30T10:35:42.064Z,0.75
2023-01-30T11:01:58.774Z,1.16
2023-01-30T11:04:55.995Z,1.13
2023-01-30T11:07:40.394Z,1.12
2023-01-30T11:10:38.878Z,1.07
2023-01-30T11:13:32.600Z,1.06
2023-01-30T11:16:20.737Z,1.08
2023-01-30T11:22:13.354Z,1.08
2023-01-30T11:25:30.791Z,1.10
2023-01-30T11:32:25.923Z,1.15
2023-01-30T11:41:29.459Z,1.14
2023-01-30T11:44:13.817Z,1.18
2023-01-30T11:47:04.674Z,1.24
2023-01-30T11:58:40.031Z,1.28
2023-01-30T12:01:13.240Z,1.24
2023-01-30T12:09:39.851Z,1.05
2023-01-30T12:15:36.328Z,1.04
2023-01-30T12:18:16.068Z,0.99
2023-01-30T12:21:06.700Z,0.98
2023-01-30T12:28:47.374Z,1.00
2023-01-30T12:31:42.115Z,1.04
2023-01-30T12:34:18.001Z,1.05
2023-01-30T12:40:40.541Z,1.07
2023-01-30T12:43:28.409Z,1.05
2023-01-30T12:47:04.521Z,0.94
2023-01-30T12:50:30.642Z,0.87
2023-01-30T12:53:44.273Z,0.89
2023-01-30T12:56:51.747Z,0.90
2023-01-30T12:59:44.682Z,0.91
2023-01-30T13:10:21.188Z,0.77
2023-01-30T13:13:18.366Z,0.73
2023-01-30T13:15:59.550Z,0.71
2023-01-30T13:18:36.310Z,0.60
2023-01-30T13:21:14.547Z,0.48
2023-01-30T13:24:38.606Z,0.42
2023-01-30T13:30:24.493Z,0.40
2023-01-30T13:37:16.851Z,0.22
2023-01-30T13:43:12.461Z,0.13
2023-01-30T13:45:45.038Z,0.07
2023-01-30T13:54:43.297Z,-0.06
2023-01-30T13:58:23.296Z,-0.09
2023-01-30T14:00:55.462Z,-0.11
2023-01-30T14:03:33.634Z,-0.13
2023-01-30T14:09:21.570Z,-0.29
2023-01-30T14:15:10.540Z,-0.46
2023-01-30T14:27:29.109Z,-0.78
2023-01-30T14:30:01.567Z,-0.86
2023-01-30T14:36:07.585Z,-1.02
2023-01-30T14:38:58.688Z,-1.09
2023-01-30T15:05:28.285Z,-1.19
2023-01-30T15:08:17.719Z,-1.19
2023-01-30T15:10:53.161Z,-1.25
2023-01-30T15:13:58.817Z,-1.30
2023-01-30T15:16:36.241Z,-1.36
2023-01-30T15:19:07.655Z,-1.39
2023-01-30T15:21:54.898Z,-1.45
2023-01-30T15:24:35.807Z,-1.50
2023-01-30T15:27:12.836Z,-1.54
2023-01-30T15:30:03.290Z,-1.61
2023-01-30T15:32:32.224Z,-1.70
2023-01-30T15:35:17.156Z,-1.75
2023-01-30T15:37:53.365Z,-1.78
2023-01-30T15:40:27.668Z,-1.81
2023-01-30T15:43:14.480Z,-1.84
2023-01-30T15:46:28.040Z,-1.88
2023-01-30T15:49:37.496Z,-1.92
2023-01-30T15:52:07.499Z,-1.96
2023-01-30T15:54:35.790Z,-1.99
2023-01-30T15:57:04.336Z,-2.02
2023-01-30T15:59:40.156Z,-2.05
2023-01-30T16:02:14.355Z,-2.08
2023-01-30T16:04:43.075Z,-2.12
2023-01-30T16:07:20.921Z,-2.16
2023-01-30T16:10:07.224Z,-2.20
2023-01-30T16:12:41.011Z,-2.22
2023-01-30T16:15:20.311Z,-2.22
2023-01-30T16:17:55.701Z,-2.20
2023-01-30T16:20:23.982Z,-2.21
2023-01-30T16:22:53.266Z,-2.21
2023-01-30T16:25:24.423Z,-2.23
2023-01-30T16:27:53.751Z,-2.25
2023-01-30T16:30:26.951Z,-2.27
2023-01-30T16:32:55.947Z,-2.29
2023-01-30T16:35:27.077Z,-2.29
2023-01-30T16:37:58.946Z,-2.30
2023-01-30T16:40:33.338Z,-2.31
2023-01-30T16:43:03.042Z,-2.31
2023-01-30T16:45:34.711Z,-2.33
2023-01-30T16:48:18.575Z,-2.34
2023-01-30T16:50:48.646Z,-2.34
2023-01-30T16:53:18.864Z,-2.35
2023-01-30T16:56:02.844Z,-2.36
2023-01-30T16:58:32.725Z,-2.34
2023-01-30T17:01:02.233Z,-2.31
2023-01-30T17:03:34.145Z,-2.29
2023-01-30T17:06:12.722Z,-2.28
2023-01-30T17:08:48.686Z,-2.26
2023-01-30T17:11:37.913Z,-2.26
2023-01-30T17:14:18.418Z,-2.32
2023-01-30T17:17:01.019Z,-2.35
2023-01-30T17:19:29.243Z,-2.41
2023-01-30T17:21:58.576Z,-2.47
2023-01-30T17:24:27.027Z,-2.50
2023-01-30T17:27:00.415Z,-2.51
2023-01-30T17:29:42.412Z,-2.51
2023-01-30T17:32:12.414Z,-2.49
2023-01-30T17:34:41.751Z,-2.50
2023-01-30T17:37:15.931Z,-2.58
2023-01-30T17:39:44.215Z,-2.69
2023-01-30T17:42:13.671Z,-2.78
2023-01-30T17:44:42.217Z,-2.86
2023-01-30T17:47:13.638Z,-2.92
2023-01-30T17:49:45.159Z,-2.97
2023-01-30T17:52:13.712Z,-2.97
2023-01-30T17:54:42.357Z,-2.95
2023-01-30T17:57:12.236Z,-2.94
2023-01-30T17:59:41.647Z,-2.98
2023-01-30T18:02:11.203Z,-3.04
2023-01-30T18:04:40.927Z,-3.10
2023-01-30T18:07:13.709Z,-3.14
2023-01-30T18:09:45.391Z,-3.18
2023-01-30T18:12:15.249Z,-3.23
2023-01-30T18:14:45.257Z,-3.25
2023-01-30T18:17:15.489Z,-3.25
2023-01-30T18:19:45.685Z,-3.30
2023-01-30T18:22:16.507Z,-3.34
2023-01-30T18:24:47.590Z,-3.32
2023-01-30T18:27:18.546Z,-3.28
2023-01-30T18:29:49.057Z,-3.19
2023-01-30T18:32:19.997Z,-3.10
2023-01-30T18:34:51.441Z,-3.01
2023-01-30T18:37:26.492Z,-2.93
2023-01-30T18:39:59.817Z,-2.86
2023-01-30T18:42:31.211Z,-2.76
2023-01-30T18:45:02.666Z,-2.69
2023-01-30T18:47:33.940Z,-2.62
2023-01-30T18:50:05.436Z,-2.57
2023-01-30T18:52:36.423Z,-2.51
2023-01-30T18:55:08.270Z,-2.47
2023-01-30T18:57:39.035Z,-2.42
2023-01-30T19:00:09.541Z,-2.38
2023-01-30T19:02:40.652Z,-2.34
2023-01-30T19:05:11.320Z,-2.31
2023-01-30T19:07:40.755Z,-2.27
2023-01-30T19:10:11.896Z,-2.24
2023-01-30T19:13:00.125Z,-2.18
2023-01-30T19:15:29.844Z,-2.11
2023-01-30T19:17:59.140Z,-2.10
2023-01-30T19:20:28.363Z,-2.10
2023-01-30T19:22:57.991Z,-2.10
2023-01-30T19:25:27.417Z,-2.08
2023-01-30T19:28:16.522Z,-2.03
2023-01-30T19:30:45.434Z,-2.00
2023-01-30T19:33:15.206Z,-1.96
2023-01-30T19:35:44.472Z,-1.92
2023-01-30T19:38:12.962Z,-1.90
2023-01-30T19:40:45.297Z,-1.86
2023-01-30T19:43:13.943Z,-1.81
2023-01-30T19:45:42.751Z,-1.75
2023-01-30T19:48:11.060Z,-1.69
2023-01-30T19:50:39.211Z,-1.66
2023-01-30T19:53:07.309Z,-1.65
2023-01-30T19:55:35.925Z,-1.63
2023-01-30T19:58:04.837Z,-1.60
2023-01-30T20:00:33.081Z,-1.58
2023-01-30T20:03:01.226Z,-1.53
2023-01-30T20:05:31.346Z,-1.51
2023-01-30T20:07:59.494Z,-1.48
2023-01-30T20:10:27.890Z,-1.43
2023-01-30T20:12:56.238Z,-1.39
2023-01-30T20:15:24.380Z,-1.35
2023-01-30T20:17:53.389Z,-1.29
2023-01-30T20:20:21.810Z,-1.25
2023-01-30T20:22:50.411Z,-1.20
2023-01-30T20:25:18.852Z,-1.17
2023-01-30T20:27:47.115Z,-1.13
2023-01-30T20:30:16.229Z,-1.11
2023-01-30T20:32:44.685Z,-1.09
2023-01-30T20:35:13.698Z,-1.05
2023-01-30T20:37:41.715Z,-1.04
2023-01-30T20:40:10.957Z,-1.05
2023-01-30T20:42:39.708Z,-1.01
2023-01-30T20:45:08.418Z,-0.97
2023-01-30T20:47:37.640Z,-0.93
2023-01-30T20:50:05.896Z,-0.90
2023-01-30T20:52:35.317Z,-0.88
2023-01-30T20:55:03.903Z,-0.89
2023-01-30T20:57:32.062Z,-0.86
2023-01-30T21:00:00.216Z,-0.85
2023-01-30T21:02:28.623Z,-0.87
2023-01-30T21:04:56.787Z,-0.91
2023-01-30T21:07:24.880Z,-0.91
2023-01-30T21:09:52.950Z,-0.87
2023-01-30T21:12:21.068Z,-0.82
2023-01-30T21:14:51.313Z,-0.80
2023-01-30T21:17:19.589Z,-0.82
2023-01-30T21:19:47.642Z,-0.86
2023-01-30T21:22:15.747Z,-0.89
2023-01-30T21:24:43.792Z,-0.95
2023-01-30T21:27:12.284Z,-1.03
2023-01-30T21:29:41.355Z,-1.10
2023-01-30T21:32:09.625Z,-1.18
2023-01-30T21:34:38.108Z,-1.25
2023-01-30T21:37:25.105Z,-1.29
2023-01-30T21:40:11.635Z,-1.34
2023-01-30T21:42:58.568Z,-1.39
2023-01-30T21:45:26.740Z,-1.41
2023-01-30T21:47:54.820Z,-1.46
2023-01-30T21:50:22.882Z,-1.47
2023-01-30T21:52:51.546Z,-1.50
2023-01-30T21:55:20.606Z,-1.54
2023-01-30T21:57:48.823Z,-1.57
2023-01-30T22:00:17.085Z,-1.59
2023-01-30T22:02:45.131Z,-1.60
2023-01-30T22:05:13.340Z,-1.60
2023-01-30T22:07:42.707Z,-1.60
2023-01-30T22:10:11.224Z,-1.61
2023-01-30T22:12:41.637Z,-1.60
2023-01-30T22:15:10.047Z,-1.56
2023-01-30T22:17:38.638Z,-1.54
2023-01-30T22:20:10.035Z,-1.52
2023-01-30T22:22:38.690Z,-1.48
2023-01-30T22:25:11.711Z,-1.45
2023-01-30T22:27:39.743Z,-1.42
2023-01-30T22:30:08.741Z,-1.39
2023-01-30T22:32:39.651Z,-1.36
2023-01-30T22:35:08.477Z,-1.33
2023-01-30T22:37:37.303Z,-1.33
2023-01-30T22:40:06.510Z,-1.31
2023-01-30T22:42:35.914Z,-1.27
2023-01-30T22:45:04.945Z,-1.24
2023-01-30T22:47:33.239Z,-1.23
2023-01-30T22:50:01.533Z,-1.25
2023-01-30T22:52:29.986Z,-1.33
2023-01-30T22:54:58.259Z,-1.35
2023-01-30T22:57:26.654Z,-1.35
2023-01-30T22:59:54.812Z,-1.38
2023-01-30T23:02:23.093Z,-1.37
2023-01-30T23:04:52.089Z,-1.36
2023-01-30T23:07:22.345Z,-1.36
2023-01-30T23:09:50.899Z,-1.35
2023-01-30T23:12:39.065Z,-1.35
2023-01-30T23:15:07.947Z,-1.37
2023-01-30T23:17:54.805Z,-1.40
2023-01-30T23:20:24.745Z,-1.46
2023-01-30T23:22:53.340Z,-1.52
2023-01-30T23:25:22.185Z,-1.54
2023-01-30T23:27:50.557Z,-1.54
2023-01-30T23:30:18.702Z,-1.58
2023-01-30T23:32:47.372Z,-1.61
2023-01-30T23:35:15.753Z,-1.61
2023-01-30T23:38:02.769Z,-1.61
2023-01-30T23:40:32.066Z,-1.64
2023-01-30T23:43:00.344Z,-1.68
2023-01-30T23:45:29.663Z,-1.70
2023-01-30T23:47:58.010Z,-1.70
2023-01-30T23:50:26.400Z,-1.66
2023-01-30T23:52:54.472Z,-1.66
2023-01-30T23:55:22.956Z,-1.68
2023-01-30T23:57:51.029Z,-1.69
